createdAt,value
2022-11-15T00:02:05.592Z,1.50
2022-11-15T00:04:53.503Z,3.95
2022-11-15T00:07:55.317Z,1.35
2022-11-15T00:10:34.029Z,3.25
2022-11-15T00:13:22.831Z,1.48
2022-11-15T00:19:13.282Z,3.15
2022-11-15T00:22:01.215Z,1.20
2022-11-15T00:24:49.313Z,3.70
2022-11-15T00:27:41.953Z,2.65
2022-11-15T00:30:30.613Z,1.25
2022-11-15T00:33:09.222Z,4.20
2022-11-15T00:36:01.818Z,1.65
2022-11-15T00:41:49.091Z,3.58
2022-11-15T00:44:37.205Z,1.13
2022-11-15T00:47:25.111Z,3.65
2022-11-15T00:50:15.693Z,2.50
2022-11-15T00:53:03.521Z,0.95
2022-11-15T00:56:01.766Z,2.15
2022-11-15T00:58:49.330Z,1.00
2022-11-15T01:01:43.780Z,2.72
2022-11-15T01:04:31.775Z,2.47
2022-11-15T01:07:21.690Z,2.65
2022-11-15T01:10:10.212Z,2.92
2022-11-15T01:12:57.908Z,2.47
2022-11-15T01:15:46.282Z,0.85
2022-11-15T01:18:22.003Z,3.50
2022-11-15T01:21:12.066Z,2.72
2022-11-15T01:24:02.104Z,1.05
2022-11-15T01:26:49.855Z,2.35
2022-11-15T01:29:38.754Z,1.15
2022-11-15T01:32:26.694Z,1.70
2022-11-15T01:35:14.834Z,0.88
2022-11-15T01:37:50.889Z,3.45
2022-11-15T01:40:41.860Z,2.03
2022-11-15T01:43:34.574Z,2.35
2022-11-15T01:46:29.474Z,2.30
2022-11-15T01:49:25.464Z,1.63
2022-11-15T01:52:16.907Z,2.72
2022-11-15T01:55:08.892Z,3.87
2022-11-15T01:57:49.661Z,1.25
2022-11-15T02:00:38.055Z,4.55
2022-11-15T02:03:39.696Z,3.70
2022-11-15T02:06:27.914Z,2.53
2022-11-15T02:09:16.297Z,2.47
2022-11-15T02:12:04.045Z,1.52
2022-11-15T02:14:57.208Z,1.83
2022-11-15T02:17:58.684Z,2.55
2022-11-15T02:21:12.999Z,2.60
2022-11-15T02:24:32.531Z,2.00
2022-11-15T02:27:48.934Z,8.35
2022-11-15T02:30:45.994Z,4.43
2022-11-15T02:33:46.233Z,2.53
2022-11-15T02:36:42.916Z,2.20
2022-11-15T02:39:38.658Z,3.42
2022-11-15T02:42:44.266Z,3.28
2022-11-15T02:45:38.227Z,1.38
2022-11-15T02:48:34.433Z,1.65
2022-11-15T02:51:23.317Z,3.60
2022-11-15T02:54:18.536Z,3.25
2022-11-15T02:57:09.950Z,3.03
2022-11-15T03:00:07.465Z,4.15
2022-11-15T03:03:21.521Z,4.30
2022-11-15T03:06:24.026Z,2.10
2022-11-15T03:12:15.139Z,4.63
2022-11-15T03:15:08.963Z,3.65
2022-11-15T03:18:01.660Z,1.80
2022-11-15T03:20:51.468Z,4.65
2022-11-15T03:23:43.285Z,3.03
2022-11-15T03:26:33.165Z,3.50
2022-11-15T03:29:15.363Z,3.80
2022-11-15T03:35:11.593Z,3.00
2022-11-15T03:38:12.127Z,3.42
2022-11-15T03:41:04.089Z,2.03
2022-11-15T03:43:59.138Z,0.90
2022-11-15T03:46:51.152Z,4.35
2022-11-15T03:49:50.555Z,2.50
2022-11-15T03:52:38.800Z,1.52
2022-11-15T03:55:32.165Z,2.90
2022-11-15T03:58:22.032Z,3.55
2022-11-15T04:01:10.038Z,1.27
2022-11-15T04:03:58.032Z,3.70
2022-11-15T04:09:57.179Z,5.75
2022-11-15T04:12:48.096Z,1.98
2022-11-15T04:15:38.182Z,0.70
2022-11-15T04:18:26.213Z,1.65
2022-11-15T04:21:41.735Z,1.85
2022-11-15T04:24:29.767Z,2.30
2022-11-15T04:27:17.499Z,1.40
2022-11-15T04:30:14.446Z,4.97
2022-11-15T04:33:04.487Z,3.33
2022-11-15T04:36:16.548Z,3.60
2022-11-15T04:39:04.806Z,2.30
2022-11-15T04:42:02.972Z,2.35
2022-11-15T04:44:50.961Z,1.88
2022-11-15T04:47:38.746Z,2.35
2022-11-15T04:50:31.413Z,2.25
2022-11-15T04:53:24.887Z,5.15
2022-11-15T04:56:13.881Z,5.07
2022-11-15T04:59:01.668Z,3.25
2022-11-15T05:01:49.458Z,7.60
2022-11-15T05:04:35.251Z,2.08
2022-11-15T05:07:25.413Z,2.38
2022-11-15T05:10:06.398Z,1.63
2022-11-15T05:12:42.276Z,3.70
2022-11-15T05:15:35.535Z,4.13
2022-11-15T05:18:24.022Z,4.13
2022-11-15T05:21:15.225Z,3.83
2022-11-15T05:24:05.582Z,5.32
2022-11-15T05:26:53.131Z,4.05
2022-11-15T05:29:45.756Z,4.57
2022-11-15T05:32:38.814Z,7.03
2022-11-15T05:35:34.277Z,2.65
2022-11-15T05:38:22.023Z,4.20
2022-11-15T05:41:12.501Z,3.63
2022-11-15T05:46:57.525Z,6.30
2022-11-15T05:52:40.232Z,2.72
2022-11-15T05:55:27.487Z,3.50
2022-11-15T05:58:20.276Z,5.03
2022-11-15T06:01:08.687Z,3.75
2022-11-15T06:03:56.378Z,5.45
2022-11-15T06:06:44.456Z,6.57
2022-11-15T06:09:32.320Z,3.72
2022-11-15T06:12:21.335Z,9.05
2022-11-15T06:15:12.094Z,5.53
2022-11-15T06:18:00.474Z,5.68
2022-11-15T06:20:48.776Z,9.90
2022-11-15T06:23:37.269Z,4.47
2022-11-15T06:26:25.381Z,2.55
2022-11-15T06:29:13.253Z,6.78
2022-11-15T06:32:03.039Z,6.13
2022-11-15T06:34:56.035Z,3.47
2022-11-15T06:37:44.557Z,2.95
2022-11-15T06:40:32.229Z,3.95
2022-11-15T06:43:20.791Z,3.72
2022-11-15T06:46:10.252Z,5.70
2022-11-15T06:49:05.194Z,4.55
2022-11-15T06:51:44.838Z,2.13
2022-11-15T06:54:39.232Z,6.18
2022-11-15T06:57:27.245Z,3.20
2022-11-15T07:00:19.913Z,7.50
2022-11-15T07:03:07.719Z,4.82
2022-11-15T07:06:04.245Z,3.90
2022-11-15T07:08:55.053Z,4.35
2022-11-15T07:11:43.959Z,5.53
2022-11-15T07:14:31.923Z,5.88
2022-11-15T07:17:19.677Z,5.47
2022-11-15T07:20:08.716Z,7.00
2022-11-15T07:23:05.860Z,4.85
2022-11-15T07:25:53.801Z,6.13
2022-11-15T07:28:42.112Z,4.90
2022-11-15T07:31:30.174Z,3.55
2022-11-15T07:34:18.108Z,3.85
2022-11-15T07:37:06.082Z,8.40
2022-11-15T07:40:00.750Z,6.25
2022-11-15T07:42:57.777Z,3.45
2022-11-15T07:45:58.618Z,11.27
2022-11-15T07:48:47.207Z,3.67
2022-11-15T07:51:35.416Z,5.72
2022-11-15T07:54:23.629Z,5.93
2022-11-15T07:57:13.613Z,2.75
2022-11-15T08:00:01.764Z,2.88
2022-11-15T08:02:49.925Z,6.30
2022-11-15T08:05:40.423Z,6.43
2022-11-15T08:08:33.521Z,5.97
2022-11-15T08:11:21.315Z,6.15
2022-11-15T08:14:17.673Z,6.63
2022-11-15T08:17:05.634Z,5.57
2022-11-15T08:19:53.927Z,8.43
2022-11-15T08:22:41.703Z,8.32
2022-11-15T08:25:31.804Z,10.70
2022-11-15T08:28:30.827Z,8.98
2022-11-15T08:31:21.800Z,8.88
2022-11-15T08:34:10.067Z,6.47
2022-11-15T08:36:58.454Z,8.77
2022-11-15T08:39:51.614Z,7.45
2022-11-15T08:42:40.186Z,9.18
2022-11-15T08:45:27.945Z,6.47
2022-11-15T08:48:23.539Z,9.68
2022-11-15T08:51:17.780Z,9.70
2022-11-15T08:54:06.243Z,10.45
2022-11-15T08:56:54.242Z,6.75
2022-11-15T08:59:42.185Z,6.50
2022-11-15T09:02:30.283Z,10.13
2022-11-15T09:05:25.283Z,6.85
2022-11-15T09:08:46.191Z,8.32
2022-11-15T09:11:17.115Z,7.83
2022-11-15T09:14:05.283Z,11.70
2022-11-15T09:16:53.553Z,6.55
2022-11-15T09:19:41.154Z,9.40
2022-11-15T09:22:33.054Z,4.60
2022-11-15T09:25:11.248Z,10.27
2022-11-15T09:28:00.249Z,8.02
2022-11-15T09:30:48.685Z,5.40
2022-11-15T09:33:41.701Z,8.15
2022-11-15T09:36:32.073Z,5.53
2022-11-15T09:39:22.416Z,9.10
2022-11-15T09:42:32.546Z,6.05
2022-11-15T09:45:26.551Z,7.20
2022-11-15T09:48:42.322Z,8.90
2022-11-15T09:51:33.947Z,9.32
2022-11-15T09:57:16.281Z,6.60
2022-11-15T10:03:17.277Z,10.43
2022-11-15T10:05:48.555Z,6.25
2022-11-15T10:08:36.021Z,8.63
2022-11-15T10:14:13.055Z,12.02
2022-11-15T10:17:18.046Z,12.55
2022-11-15T10:20:04.106Z,11.82
2022-11-15T10:22:41.163Z,10.85
2022-11-15T10:25:25.457Z,14.80
2022-11-15T10:28:00.543Z,6.07
2022-11-15T10:30:40.907Z,8.35
2022-11-15T10:33:25.275Z,7.88
2022-11-15T10:36:19.384Z,8.85
2022-11-15T10:38:57.866Z,8.77
2022-11-15T10:41:45.057Z,8.20
2022-11-15T10:44:26.298Z,8.88
2022-11-15T10:47:39.795Z,8.60
2022-11-15T10:50:33.584Z,11.60
2022-11-15T10:53:05.357Z,5.38
2022-11-15T10:55:36.866Z,10.32
2022-11-15T10:58:09.577Z,8.88
2022-11-15T11:00:42.549Z,9.45
2022-11-15T11:03:32.157Z,14.35
2022-11-15T11:06:12.257Z,6.65
2022-11-15T11:08:42.147Z,7.15
2022-11-15T11:11:11.459Z,12.48
2022-11-15T11:13:51.736Z,12.40
2022-11-15T11:16:38.731Z,8.05
2022-11-15T11:19:26.700Z,9.48
2022-11-15T11:22:04.418Z,16.45
2022-11-15T11:24:39.492Z,13.85
2022-11-15T11:27:44.222Z,14.05
2022-11-15T11:30:22.861Z,6.55
2022-11-15T11:33:15.631Z,8.55
2022-11-15T11:35:57.859Z,12.13
2022-11-15T11:38:45.524Z,6.03
2022-11-15T11:41:28.258Z,6.20
2022-11-15T11:44:14.086Z,6.78
2022-11-15T11:46:55.459Z,8.90
2022-11-15T11:49:31.449Z,8.30
2022-11-15T11:52:07.902Z,8.02
2022-11-15T11:54:49.368Z,6.93
2022-11-15T11:57:35.777Z,7.90
2022-11-15T12:00:15.373Z,9.20
2022-11-15T12:02:49.854Z,6.57
2022-11-15T12:05:26.724Z,6.97
2022-11-15T12:08:04.223Z,6.70
2022-11-15T12:10:37.526Z,7.93
2022-11-15T12:16:14.419Z,4.85
2022-11-15T12:18:49.882Z,8.52
2022-11-15T12:21:28.663Z,8.70
2022-11-15T12:24:04.668Z,5.65
2022-11-15T12:26:40.307Z,5.22
2022-11-15T12:29:18.696Z,7.60
2022-11-15T12:31:53.436Z,6.00
2022-11-15T12:34:45.505Z,8.75
2022-11-15T12:37:58.712Z,7.43
2022-11-15T12:40:35.583Z,5.60
2022-11-15T12:43:42.988Z,9.60
2022-11-15T12:46:25.565Z,10.82
2022-11-15T12:55:35.946Z,10.88
2022-11-15T12:58:43.607Z,11.38
2022-11-15T13:01:13.621Z,5.95
2022-11-15T13:04:17.752Z,7.32
2022-11-15T13:06:49.515Z,7.32
2022-11-15T13:12:05.529Z,12.38
2022-11-15T13:14:54.032Z,7.63
2022-11-15T13:17:30.350Z,6.82
2022-11-15T13:20:22.657Z,5.97
2022-11-15T13:22:55.167Z,7.53
2022-11-15T13:26:03.269Z,8.57
2022-11-15T13:28:39.505Z,6.80
2022-11-15T13:31:24.358Z,6.38
2022-11-15T13:33:59.401Z,6.80
2022-11-15T13:36:33.613Z,8.10
2022-11-15T13:39:15.483Z,5.15
2022-11-15T13:41:50.442Z,7.03
2022-11-15T13:44:25.545Z,8.23
2022-11-15T13:47:05.378Z,6.90
2022-11-15T13:49:39.958Z,9.48
2022-11-15T13:52:11.300Z,8.32
2022-11-15T13:54:45.774Z,5.32
2022-11-15T13:57:18.724Z,8.38
2022-11-15T14:02:32.720Z,6.72
2022-11-15T14:05:05.851Z,10.10
2022-11-15T14:07:44.295Z,8.02
2022-11-15T14:10:27.635Z,7.35
2022-11-15T14:12:57.076Z,8.77
2022-11-15T14:15:35.187Z,8.20
2022-11-15T14:18:04.955Z,9.15
2022-11-15T14:20:44.950Z,9.93
2022-11-15T14:23:26.496Z,10.07
2022-11-15T14:25:56.448Z,8.65
2022-11-15T14:28:34.031Z,8.43
2022-11-15T14:31:15.032Z,7.93
2022-11-15T14:33:44.806Z,8.93
2022-11-15T14:36:22.842Z,8.07
2022-11-15T14:38:52.174Z,6.95
2022-11-15T14:41:24.170Z,7.55
2022-11-15T14:43:54.700Z,11.48
2022-11-15T14:46:25.929Z,10.07
2022-11-15T14:48:55.254Z,8.68
2022-11-15T14:51:24.811Z,7.53
2022-11-15T14:54:00.994Z,8.60
2022-11-15T14:56:30.606Z,11.52
2022-11-15T14:58:59.777Z,11.00
2022-11-15T15:01:31.285Z,7.38
2022-11-15T15:04:05.961Z,8.90
2022-11-15T15:06:40.253Z,7.45
2022-11-15T15:09:09.583Z,8.25
2022-11-15T15:11:38.710Z,8.50
2022-11-15T15:16:44.797Z,9.77
2022-11-15T15:19:14.000Z,9.40
2022-11-15T15:21:43.179Z,9.32
2022-11-15T15:24:16.738Z,9.98
2022-11-15T15:26:45.968Z,11.68
2022-11-15T15:29:15.160Z,12.63
2022-11-15T15:31:56.844Z,14.85
2022-11-15T15:34:26.239Z,11.15
2022-11-15T15:37:10.520Z,9.05
2022-11-15T15:39:40.047Z,9.93
2022-11-15T15:42:09.458Z,9.85
2022-11-15T15:44:38.788Z,11.63
2022-11-15T15:47:14.614Z,8.10
2022-11-15T15:49:43.958Z,11.30
2022-11-15T15:52:13.198Z,9.23
2022-11-15T15:54:43.115Z,10.27
2022-11-15T15:57:17.420Z,10.98
2022-11-15T15:59:54.519Z,7.80
2022-11-15T16:02:25.737Z,6.60
2022-11-15T16:04:55.013Z,6.18
2022-11-15T16:07:26.228Z,8.00
2022-11-15T16:10:03.609Z,7.20
2022-11-15T16:12:35.720Z,10.68
2022-11-15T16:15:06.004Z,12.87
2022-11-15T16:17:40.486Z,9.43
2022-11-15T16:20:17.912Z,13.63
2022-11-15T16:22:47.451Z,10.40
2022-11-15T16:25:16.788Z,9.50
2022-11-15T16:27:51.297Z,11.02
2022-11-15T16:30:22.910Z,13.00
2022-11-15T16:32:54.511Z,10.18
2022-11-15T16:35:25.223Z,13.73
2022-11-15T16:37:54.610Z,7.80
2022-11-15T16:40:30.558Z,9.15
2022-11-15T16:43:07.644Z,8.68
2022-11-15T16:45:38.081Z,8.48
2022-11-15T16:48:17.955Z,7.38
2022-11-15T16:50:47.464Z,8.30
2022-11-15T16:53:16.712Z,7.82
2022-11-15T16:55:46.031Z,8.65
2022-11-15T16:58:15.305Z,7.35
2022-11-15T17:00:44.789Z,8.35
2022-11-15T17:03:16.107Z,10.48
2022-11-15T17:05:45.559Z,11.55
2022-11-15T17:08:15.091Z,8.35
2022-11-15T17:10:44.337Z,10.25
2022-11-15T17:13:14.396Z,8.70
2022-11-15T17:15:43.752Z,11.70
2022-11-15T17:18:17.090Z,10.27
2022-11-15T17:20:46.576Z,6.55
2022-11-15T17:23:17.045Z,6.10
2022-11-15T17:25:46.480Z,8.70
2022-11-15T17:28:20.631Z,8.85
2022-11-15T17:30:49.944Z,10.38
2022-11-15T17:33:21.234Z,10.25
2022-11-15T17:36:02.819Z,7.20
2022-11-15T17:38:32.843Z,9.02
2022-11-15T17:41:03.908Z,8.18
2022-11-15T17:43:34.566Z,10.63
2022-11-15T17:46:08.118Z,10.75
2022-11-15T17:48:40.067Z,13.27
2022-11-15T17:51:12.365Z,8.43
2022-11-15T17:53:43.182Z,10.07
2022-11-15T17:56:14.867Z,7.13
2022-11-15T17:58:53.011Z,8.35
2022-11-15T18:01:25.286Z,8.88
2022-11-15T18:04:03.313Z,9.32
2022-11-15T18:06:35.056Z,8.73
2022-11-15T18:09:06.857Z,8.55
2022-11-15T18:14:09.354Z,6.80
2022-11-15T18:16:39.950Z,6.30
2022-11-15T18:19:13.415Z,5.88
2022-11-15T18:22:00.470Z,10.63
2022-11-15T18:24:31.862Z,8.40
2022-11-15T18:27:02.028Z,6.22
2022-11-15T18:29:32.120Z,6.68
2022-11-15T18:32:04.748Z,12.07
2022-11-15T18:34:45.403Z,9.20
2022-11-15T18:37:14.987Z,5.63
2022-11-15T18:39:45.804Z,4.95
2022-11-15T18:42:17.824Z,9.82
2022-11-15T18:44:47.722Z,7.82
2022-11-15T18:47:16.964Z,7.85
2022-11-15T18:49:48.114Z,6.50
2022-11-15T18:52:17.412Z,7.97
2022-11-15T18:54:46.698Z,8.45
2022-11-15T18:57:16.204Z,8.57
2022-11-15T18:59:45.513Z,10.27
2022-11-15T19:02:14.850Z,7.05
2022-11-15T19:04:44.627Z,9.30
2022-11-15T19:07:15.999Z,8.27
2022-11-15T19:09:45.730Z,12.27
2022-11-15T19:12:14.913Z,10.40
2022-11-15T19:14:44.240Z,12.70
2022-11-15T19:17:16.312Z,12.23
2022-11-15T19:19:46.734Z,12.52
2022-11-15T19:22:18.260Z,15.27
2022-11-15T19:24:47.495Z,10.90
2022-11-15T19:27:16.781Z,12.20
2022-11-15T19:29:46.215Z,9.18
2022-11-15T19:32:15.466Z,11.60
2022-11-15T19:34:44.804Z,9.20
2022-11-15T19:37:13.990Z,10.10
2022-11-15T19:39:45.209Z,13.77
2022-11-15T19:44:54.826Z,12.15
2022-11-15T19:47:25.452Z,13.77
2022-11-15T19:50:01.740Z,12.65
2022-11-15T19:52:33.670Z,12.10
2022-11-15T19:55:05.426Z,17.27
2022-11-15T19:57:34.917Z,18.77
2022-11-15T20:00:07.474Z,21.58
2022-11-15T20:02:37.075Z,23.38
2022-11-15T20:05:06.856Z,23.45
2022-11-15T20:07:36.222Z,24.08
2022-11-15T20:10:08.272Z,24.00
2022-11-15T20:12:38.629Z,18.90
2022-11-15T20:15:08.872Z,22.50
2022-11-15T20:17:38.191Z,22.15
2022-11-15T20:20:14.470Z,20.95
2022-11-15T20:22:44.835Z,18.55
2022-11-15T20:25:16.500Z,19.95
2022-11-15T20:27:46.092Z,20.80
2022-11-15T20:30:15.507Z,20.50
2022-11-15T20:32:50.719Z,21.17
2022-11-15T20:38:01.322Z,20.10
2022-11-15T20:40:32.787Z,20.60
2022-11-15T20:43:02.161Z,17.60
2022-11-15T20:45:31.700Z,18.77
2022-11-15T20:48:01.299Z,16.85
2022-11-15T20:53:11.639Z,15.43
2022-11-15T20:55:53.166Z,19.65
2022-11-15T20:58:22.941Z,16.75
2022-11-15T21:00:52.209Z,18.02
2022-11-15T21:03:21.504Z,18.52
2022-11-15T21:05:50.779Z,19.02
2022-11-15T21:08:20.173Z,19.63
2022-11-15T21:11:15.869Z,19.48
2022-11-15T21:13:45.320Z,15.52
2022-11-15T21:16:16.005Z,20.60
2022-11-15T21:18:45.157Z,19.23
2022-11-15T21:21:14.680Z,15.60
2022-11-15T21:23:44.253Z,16.35
2022-11-15T21:26:15.433Z,12.10
2022-11-15T21:28:44.812Z,16.33
2022-11-15T21:31:13.957Z,24.80
2022-11-15T21:33:43.129Z,12.23
2022-11-15T21:36:22.559Z,10.40
2022-11-15T21:38:53.216Z,11.98
2022-11-15T21:41:30.336Z,9.65
2022-11-15T21:44:00.314Z,10.50
2022-11-15T21:46:29.895Z,9.95
2022-11-15T21:48:59.992Z,7.85
2022-11-15T21:51:30.945Z,6.95
2022-11-15T21:54:01.409Z,11.00
2022-11-15T21:56:33.284Z,9.88
2022-11-15T21:59:03.363Z,8.02
2022-11-15T22:01:45.645Z,8.93
2022-11-15T22:04:15.554Z,9.05
2022-11-15T22:06:45.069Z,7.85
2022-11-15T22:09:14.424Z,8.32
2022-11-15T22:11:45.511Z,8.15
2022-11-15T22:14:15.098Z,9.63
2022-11-15T22:16:44.311Z,6.97
2022-11-15T22:19:13.821Z,6.57
2022-11-15T22:21:43.221Z,10.98
2022-11-15T22:24:12.505Z,5.38
2022-11-15T22:26:41.862Z,3.63
2022-11-15T22:29:13.764Z,8.30
2022-11-15T22:34:12.218Z,7.88
2022-11-15T22:37:13.278Z,4.43
2022-11-15T22:39:34.351Z,11.65
2022-11-15T22:42:04.857Z,4.82
2022-11-15T22:44:36.159Z,5.82
2022-11-15T22:47:10.798Z,5.72
2022-11-15T22:49:41.865Z,9.02
2022-11-15T22:52:16.259Z,7.05
2022-11-15T22:54:45.509Z,8.02
2022-11-15T22:57:14.811Z,5.55
2022-11-15T22:59:46.388Z,10.98
2022-11-15T23:02:16.100Z,9.50
2022-11-15T23:04:45.336Z,5.00
2022-11-15T23:07:25.104Z,4.53
2022-11-15T23:10:16.314Z,5.63
2022-11-15T23:13:03.624Z,5.05
2022-11-15T23:15:47.792Z,5.70
2022-11-15T23:18:17.228Z,3.88
2022-11-15T23:20:47.621Z,5.72
2022-11-15T23:23:14.968Z,5.47
2022-11-15T23:25:44.434Z,4.75
2022-11-15T23:28:13.840Z,7.85
2022-11-15T23:30:57.819Z,3.13
2022-11-15T23:33:41.132Z,7.13
2022-11-15T23:36:10.802Z,4.00
2022-11-15T23:41:23.588Z,5.63
2022-11-15T23:43:53.184Z,5.65
2022-11-15T23:46:24.546Z,4.72
2022-11-15T23:48:53.842Z,6.38
2022-11-15T23:51:23.109Z,8.75
2022-11-15T23:53:57.499Z,7.43
2022-11-15T23:56:27.283Z,11.32
2022-11-15T23:58:56.722Z,9.90
